Time;durP1;ratioP1;P1;durP2;ratioP2;P2;SDS_P1;SDS_P2;PMS_P1;PMS_P2;Temp;Humidity;BMP_temperature;BMP_pressure;BME280_temperature;BME280_humidity;BME280_pressure;Samples;Min_cycle;Max_cycle;Signal;HPM_P1;HPM_P2
2023/09/02 00:01:37;;;;;;;13.70;12.20;;;15.70;99.90;;;;;;5038264;28;20684;-57
2023/09/02 00:04:03;;;;;;;13.70;12.47;;;15.70;99.90;;;;;;5037205;28;20194;-57
2023/09/02 00:06:29;;;;;;;13.80;12.40;;;15.70;99.90;;;;;;5041738;28;20209;-57
2023/09/02 00:08:54;;;;;;;15.53;12.87;;;15.70;99.90;;;;;;5036166;28;20657;-57
2023/09/02 00:11:20;;;;;;;16.67;12.60;;;15.70;99.90;;;;;;5036984;28;20195;-55
2023/09/02 00:13:46;;;;;;;12.60;11.33;;;15.70;99.90;;;;;;5034221;28;20218;-58
2023/09/02 00:16:13;;;;;;;13.70;12.17;;;15.70;99.90;;;;;;5023653;28;20219;-54
2023/09/02 00:18:39;;;;;;;13.33;12.10;;;15.70;99.90;;;;;;5034802;28;20207;-54
2023/09/02 00:21:04;;;;;;;14.43;11.00;;;15.60;99.90;;;;;;5019005;28;20224;-54
2023/09/02 00:23:31;;;;;;;11.10;9.83;;;15.60;99.90;;;;;;5037683;28;20200;-55
2023/09/02 00:25:57;;;;;;;11.80;10.70;;;15.60;99.90;;;;;;5038027;28;20178;-54
2023/09/02 00:28:22;;;;;;;12.70;11.40;;;15.60;99.90;;;;;;5035592;28;20267;-54
2023/09/02 00:30:48;;;;;;;14.73;13.33;;;15.50;99.90;;;;;;5022718;28;20284;-57
2023/09/02 00:33:13;;;;;;;17.27;14.80;;;15.60;99.90;;;;;;5038412;28;20198;-54
2023/09/02 00:35:39;;;;;;;14.00;12.67;;;15.50;99.90;;;;;;5037426;28;20293;-61
2023/09/02 00:38:04;;;;;;;14.53;12.90;;;15.50;99.90;;;;;;5041075;28;21124;-60
2023/09/02 00:40:30;;;;;;;15.33;12.70;;;15.60;99.90;;;;;;5040632;28;20289;-61
2023/09/02 00:42:57;;;;;;;12.57;11.27;;;15.50;99.90;;;;;;5033185;28;20210;-57
2023/09/02 00:45:23;;;;;;;13.53;12.10;;;15.50;99.90;;;;;;5031093;28;20209;-57
2023/09/02 00:47:50;;;;;;;14.53;13.03;;;15.60;99.90;;;;;;5036157;28;21070;-60
2023/09/02 00:50:15;;;;;;;13.57;12.20;;;15.60;99.90;;;;;;5034202;28;20584;-57
2023/09/02 00:52:41;;;;;;;12.07;10.97;;;15.50;99.90;;;;;;5036109;28;20206;-57
2023/09/02 00:55:07;;;;;;;13.20;12.00;;;15.50;99.90;;;;;;5036485;28;21304;-58
2023/09/02 00:57:33;;;;;;;12.13;11.03;;;15.50;99.90;;;;;;5034204;28;20199;-56
2023/09/02 01:00:00;;;;;;;12.10;11.00;;;15.50;99.90;;;;;;5033964;28;20222;-63
2023/09/02 01:02:26;;;;;;;17.60;11.33;;;15.50;99.90;;;;;;5035365;28;20272;-61
2023/09/02 01:04:52;;;;;;;20.67;15.40;;;15.50;99.90;;;;;;5036996;28;20197;-67
2023/09/02 01:07:18;;;;;;;17.63;13.47;;;15.30;99.90;;;;;;5033368;28;20191;-56
2023/09/02 01:09:43;;;;;;;15.80;12.60;;;15.30;99.90;;;;;;5037912;28;20276;-57
2023/09/02 01:12:10;;;;;;;12.50;10.93;;;15.30;99.90;;;;;;5036276;28;20213;-54
2023/09/02 01:14:35;;;;;;;12.87;10.90;;;15.20;99.90;;;;;;5036103;28;20198;-54
2023/09/02 01:17:01;;;;;;;10.10;9.07;;;15.20;99.90;;;;;;5034281;28;20241;-57
2023/09/02 01:19:28;;;;;;;12.60;9.97;;;15.20;99.90;;;;;;5015839;28;21153;-56
2023/09/02 01:22:18;;;;;;;9.57;8.60;;;15.10;99.90;;;;;;5030250;28;20196;-55
2023/09/02 01:25:19;;;;;;;10.17;9.03;;;15.20;99.90;;;;;;5037588;28;20256;-55
2023/09/02 01:27:52;;;;;;;11.97;9.40;;;15.20;99.90;;;;;;5024970;28;20211;-60
2023/09/02 01:30:21;;;;;;;9.10;8.20;;;15.20;99.90;;;;;;5037915;28;20199;-58
2023/09/02 01:32:50;;;;;;;8.03;7.27;;;15.20;99.90;;;;;;5039348;28;20212;-58
2023/09/02 01:35:18;;;;;;;9.23;8.30;;;15.10;99.90;;;;;;5033434;28;20215;-65
2023/09/02 01:37:48;;;;;;;9.67;8.27;;;15.10;99.90;;;;;;5038548;28;20294;-61
2023/09/02 01:40:25;;;;;;;11.60;8.07;;;15.20;99.90;;;;;;5021366;28;20201;-62
2023/09/02 01:42:52;;;;;;;9.40;8.40;;;15.20;99.90;;;;;;5039330;28;20202;-62
2023/09/02 01:45:19;;;;;;;13.00;9.70;;;15.20;99.90;;;;;;5024546;28;20198;-61
2023/09/02 01:47:46;;;;;;;9.43;8.43;;;15.20;99.90;;;;;;5044629;28;20692;-55
2023/09/02 01:50:17;;;;;;;9.80;8.63;;;15.30;99.90;;;;;;5039379;28;20692;-56
2023/09/02 01:52:43;;;;;;;9.30;8.13;;;15.30;99.90;;;;;;5045072;28;20194;-55
2023/09/02 01:55:09;;;;;;;10.17;9.23;;;15.20;99.90;;;;;;5037673;28;20307;-55
2023/09/02 01:57:36;;;;;;;13.70;9.27;;;15.10;99.90;;;;;;5039666;28;20213;-55
2023/09/02 02:00:01;;;;;;;9.37;8.47;;;15.00;99.90;;;;;;5018949;28;20610;-58
2023/09/02 02:02:27;;;;;;;8.77;7.93;;;15.00;99.90;;;;;;5040727;28;20196;-58
2023/09/02 02:04:57;;;;;;;9.47;7.97;;;14.90;99.90;;;;;;5043373;28;20260;-59
2023/09/02 02:07:28;;;;;;;12.77;8.53;;;14.90;99.90;;;;;;5040432;28;20214;-58
2023/09/02 02:09:57;;;;;;;10.70;8.37;;;14.90;99.90;;;;;;5015180;28;20866;-64
2023/09/02 02:12:24;;;;;;;9.50;8.50;;;14.80;99.90;;;;;;5041078;28;20289;-63
2023/09/02 02:14:50;;;;;;;10.60;9.00;;;14.80;99.90;;;;;;5043522;28;20263;-56
2023/09/02 02:17:15;;;;;;;10.10;9.20;;;14.80;99.90;;;;;;5032862;28;20219;-56
2023/09/02 02:19:42;;;;;;;10.07;8.93;;;14.80;99.90;;;;;;5040304;28;20212;-56
2023/09/02 02:22:08;;;;;;;10.00;8.93;;;14.90;99.90;;;;;;5040683;28;20222;-55
2023/09/02 02:24:34;;;;;;;10.50;9.50;;;14.90;99.90;;;;;;5034974;28;20226;-55
2023/09/02 02:26:59;;;;;;;9.43;8.47;;;14.90;99.90;;;;;;5040742;28;20206;-57
2023/09/02 02:29:25;;;;;;;12.13;9.50;;;14.80;99.90;;;;;;5021048;28;20203;-56
2023/09/02 02:31:50;;;;;;;11.53;8.90;;;14.80;99.90;;;;;;5044717;28;20234;-60
2023/09/02 02:34:16;;;;;;;10.53;9.43;;;14.80;99.90;;;;;;5036785;28;20900;-57
2023/09/02 02:36:41;;;;;;;11.20;9.67;;;14.90;99.90;;;;;;5039357;28;20230;-56
2023/09/02 02:39:07;;;;;;;9.57;8.57;;;14.90;99.90;;;;;;5039721;28;20576;-57
2023/09/02 02:41:33;;;;;;;10.07;9.07;;;14.90;99.90;;;;;;5036658;28;20205;-60
2023/09/02 02:43:59;;;;;;;8.80;7.90;;;14.90;99.90;;;;;;5032332;28;20187;-57
2023/09/02 02:46:25;;;;;;;11.53;8.23;;;14.90;99.90;;;;;;5037580;28;20970;-58
2023/09/02 02:48:50;;;;;;;8.43;7.63;;;14.90;99.90;;;;;;5037287;28;20238;-62
2023/09/02 02:51:16;;;;;;;9.37;8.57;;;14.90;99.90;;;;;;5015208;28;20708;-62
2023/09/02 02:53:41;;;;;;;11.07;8.93;;;14.90;99.90;;;;;;5035904;28;20676;-58
2023/09/02 02:56:07;;;;;;;10.47;8.33;;;14.90;99.90;;;;;;5034215;28;20215;-54
2023/09/02 02:58:32;;;;;;;8.87;8.07;;;14.80;99.90;;;;;;5021954;28;21259;-54
2023/09/02 03:01:11;;;;;;;8.80;7.90;;;14.80;99.90;;;;;;5042774;28;20194;-54
2023/09/02 03:03:37;;;;;;;9.03;8.23;;;14.80;99.90;;;;;;5037137;28;20198;-53
2023/09/02 03:06:04;;;;;;;8.50;7.70;;;14.80;99.90;;;;;;5037095;28;20206;-55
2023/09/02 03:08:30;;;;;;;10.57;8.80;;;14.80;99.90;;;;;;5039356;28;20214;-54
2023/09/02 03:11:00;;;;;;;9.57;8.57;;;14.70;99.90;;;;;;5044312;28;20746;-55
2023/09/02 03:13:25;;;;;;;9.67;8.10;;;14.70;99.90;;;;;;5034275;28;20202;-58
2023/09/02 03:15:53;;;;;;;10.27;7.97;;;14.70;99.90;;;;;;5038221;28;20325;-56
2023/09/02 03:18:19;;;;;;;9.93;9.03;;;14.70;99.90;;;;;;5039513;28;20191;-57
2023/09/02 03:20:45;;;;;;;9.70;8.70;;;14.60;99.90;;;;;;5023925;28;20206;-67
2023/09/02 03:23:11;;;;;;;9.83;8.60;;;14.70;99.90;;;;;;5039661;28;20194;-55
2023/09/02 03:25:37;;;;;;;9.57;8.67;;;14.60;99.90;;;;;;5040977;28;20205;-59
2023/09/02 03:28:04;;;;;;;9.17;8.37;;;14.60;99.90;;;;;;5042210;28;20219;-55
2023/09/02 03:30:29;;;;;;;8.93;8.10;;;14.70;99.90;;;;;;5041698;28;20570;-56
2023/09/02 03:32:55;;;;;;;9.77;8.57;;;14.70;99.90;;;;;;5023866;28;20213;-55
2023/09/02 03:35:20;;;;;;;10.77;9.73;;;14.70;99.90;;;;;;5038281;28;20213;-56
2023/09/02 03:37:46;;;;;;;10.30;9.30;;;14.60;99.90;;;;;;5039450;28;20202;-54
2023/09/02 03:40:11;;;;;;;10.50;9.40;;;14.50;99.90;;;;;;5037028;28;20203;-55
2023/09/02 03:42:37;;;;;;;9.93;8.93;;;14.50;99.90;;;;;;5036780;28;20201;-55
2023/09/02 03:45:03;;;;;;;11.03;9.87;;;14.60;99.90;;;;;;5036705;28;20245;-55
2023/09/02 03:47:32;;;;;;;10.40;9.27;;;14.60;99.90;;;;;;5014103;28;20230;-55
2023/09/02 03:50:00;;;;;;;11.33;9.47;;;14.60;99.90;;;;;;5035408;28;20341;-55
2023/09/02 03:52:26;;;;;;;10.97;9.87;;;14.50;99.90;;;;;;5033448;28;20195;-56
2023/09/02 03:54:51;;;;;;;10.60;9.57;;;14.50;99.90;;;;;;5040958;28;20203;-54
2023/09/02 03:57:17;;;;;;;10.80;9.70;;;14.50;99.90;;;;;;5025238;28;20199;-54
2023/09/02 03:59:42;;;;;;;11.90;9.80;;;14.50;99.90;;;;;;5038687;28;20239;-54
2023/09/02 04:02:08;;;;;;;13.77;10.40;;;14.50;99.90;;;;;;5040251;28;20210;-54
2023/09/02 04:04:33;;;;;;;10.73;9.70;;;14.50;99.90;;;;;;5034527;28;20561;-55
2023/09/02 04:06:59;;;;;;;11.53;10.43;;;14.50;99.90;;;;;;5037325;28;20202;-54
2023/09/02 04:09:24;;;;;;;13.57;10.93;;;14.50;99.90;;;;;;5041630;28;20706;-55
2023/09/02 04:11:50;;;;;;;12.63;10.37;;;14.50;99.90;;;;;;5038397;28;20210;-55
2023/09/02 04:14:15;;;;;;;14.23;10.50;;;14.50;99.90;;;;;;5040864;28;20257;-56
2023/09/02 04:16:41;;;;;;;12.57;9.47;;;14.40;99.90;;;;;;5036720;28;20226;-55
2023/09/02 04:19:06;;;;;;;13.17;10.10;;;14.40;99.90;;;;;;5037085;28;20644;-55
2023/09/02 04:21:32;;;;;;;13.30;10.97;;;14.40;99.90;;;;;;5040927;28;20228;-55
2023/09/02 04:23:57;;;;;;;13.87;10.57;;;14.40;99.90;;;;;;5034964;28;20213;-55
2023/09/02 04:26:23;;;;;;;10.83;9.70;;;14.50;99.90;;;;;;5016837;28;20199;-55
2023/09/02 04:28:49;;;;;;;16.13;10.33;;;14.40;99.90;;;;;;5017279;28;20273;-56
2023/09/02 04:31:15;;;;;;;10.37;9.27;;;14.40;99.90;;;;;;5041062;28;20803;-56
2023/09/02 04:33:40;;;;;;;10.77;9.67;;;14.40;99.90;;;;;;5040307;28;20209;-62
2023/09/02 04:36:06;;;;;;;10.33;9.33;;;14.40;99.90;;;;;;5037288;28;20588;-57
2023/09/02 04:38:32;;;;;;;10.80;9.13;;;14.40;99.90;;;;;;5036148;28;20297;-58
2023/09/02 04:41:01;;;;;;;11.00;9.13;;;14.40;99.90;;;;;;5039756;28;21108;-58
2023/09/02 04:43:27;;;;;;;10.77;9.70;;;14.40;99.90;;;;;;5035596;28;20214;-56
2023/09/02 04:45:52;;;;;;;15.07;9.67;;;14.30;99.90;;;;;;5037481;28;20202;-54
2023/09/02 04:48:18;;;;;;;9.87;8.97;;;14.30;99.90;;;;;;5039060;28;20255;-55
2023/09/02 04:50:43;;;;;;;9.83;8.83;;;14.30;99.90;;;;;;5017354;28;21039;-55
2023/09/02 04:53:09;;;;;;;9.30;8.40;;;14.30;99.90;;;;;;5020809;28;20206;-56
2023/09/02 04:55:38;;;;;;;10.60;9.13;;;14.20;99.90;;;;;;5029240;28;20223;-55
2023/09/02 04:58:04;;;;;;;9.07;8.23;;;14.20;99.90;;;;;;5016129;28;20241;-55
2023/09/02 05:00:29;;;;;;;12.37;8.83;;;14.20;99.90;;;;;;5034520;28;20690;-55
2023/09/02 05:02:55;;;;;;;9.73;8.73;;;14.20;99.90;;;;;;5011414;28;20198;-55
2023/09/02 05:05:22;;;;;;;9.10;8.30;;;14.20;99.90;;;;;;5039223;28;20226;-55
2023/09/02 05:07:48;;;;;;;11.97;9.33;;;14.20;99.90;;;;;;5040344;28;20205;-55
2023/09/02 05:10:15;;;;;;;12.37;9.97;;;14.20;99.90;;;;;;5037986;28;20201;-55
2023/09/02 05:12:41;;;;;;;11.57;10.27;;;14.20;99.90;;;;;;5037029;28;20367;-56
2023/09/02 05:15:07;;;;;;;11.17;10.00;;;14.30;99.90;;;;;;5038942;28;20198;-55
2023/09/02 05:17:33;;;;;;;10.50;9.43;;;14.30;99.90;;;;;;5038638;28;20226;-55
2023/09/02 05:20:03;;;;;;;12.43;9.43;;;14.30;99.90;;;;;;5040554;28;20205;-55
2023/09/02 05:22:29;;;;;;;10.17;8.80;;;14.30;99.90;;;;;;5036373;28;20206;-55
2023/09/02 05:24:55;;;;;;;10.73;9.07;;;14.40;99.90;;;;;;5044353;28;20202;-55
2023/09/02 05:27:21;;;;;;;12.20;10.10;;;14.40;99.90;;;;;;5036716;28;21079;-56
2023/09/02 05:29:47;;;;;;;12.23;9.40;;;14.50;99.90;;;;;;5020126;28;20669;-56
2023/09/02 05:32:13;;;;;;;11.57;10.37;;;14.50;99.90;;;;;;5043319;28;20198;-55
2023/09/02 05:34:39;;;;;;;9.97;9.00;;;14.60;99.90;;;;;;5043261;28;20230;-56
2023/09/02 05:37:05;;;;;;;11.90;9.90;;;14.60;99.90;;;;;;5045604;28;20219;-55
2023/09/02 05:39:30;;;;;;;11.67;10.47;;;14.70;99.90;;;;;;5038792;28;20240;-55
2023/09/02 05:41:56;;;;;;;11.13;10.13;;;14.70;99.90;;;;;;5035631;28;20206;-55
2023/09/02 05:44:21;;;;;;;12.50;11.30;;;14.70;99.90;;;;;;5029879;28;20215;-55
2023/09/02 05:46:47;;;;;;;12.37;11.07;;;14.80;99.90;;;;;;5041040;28;20225;-55
2023/09/02 05:49:13;;;;;;;11.47;10.30;;;14.70;99.90;;;;;;5024487;28;20199;-56
2023/09/02 05:51:39;;;;;;;14.97;11.30;;;14.60;99.90;;;;;;5043052;28;20209;-56
2023/09/02 05:54:06;;;;;;;11.37;10.37;;;14.60;99.90;;;;;;5040070;28;20203;-56
2023/09/02 05:56:33;;;;;;;13.97;12.57;;;14.70;99.90;;;;;;5036576;28;20705;-56
2023/09/02 05:58:59;;;;;;;12.53;10.83;;;14.80;99.90;;;;;;5038038;28;20691;-54
2023/09/02 06:01:24;;;;;;;12.03;10.90;;;14.80;99.90;;;;;;5038171;28;20256;-58
2023/09/02 06:03:50;;;;;;;11.83;10.67;;;14.90;99.90;;;;;;5036713;28;20207;-58
2023/09/02 06:06:15;;;;;;;10.57;9.57;;;15.00;99.90;;;;;;5040691;28;20257;-55
2023/09/02 06:08:41;;;;;;;12.47;10.40;;;15.20;99.90;;;;;;5022388;28;20186;-56
2023/09/02 06:11:07;;;;;;;11.10;10.07;;;15.20;99.90;;;;;;5037680;28;20278;-56
2023/09/02 06:13:32;;;;;;;11.33;9.27;;;15.10;99.90;;;;;;5042668;28;20203;-56
2023/09/02 06:15:59;;;;;;;11.90;10.67;;;15.10;99.90;;;;;;5043191;28;20225;-56
2023/09/02 06:18:25;;;;;;;11.00;9.90;;;15.10;99.90;;;;;;5040615;28;20202;-56
2023/09/02 06:20:51;;;;;;;11.93;10.83;;;15.10;99.90;;;;;;5024287;28;20229;-56
2023/09/02 06:23:16;;;;;;;10.97;9.47;;;15.00;99.90;;;;;;5039708;28;20210;-56
2023/09/02 06:25:41;;;;;;;9.97;8.97;;;15.10;99.90;;;;;;5040702;28;20348;-57
2023/09/02 06:28:07;;;;;;;10.70;8.40;;;15.10;99.90;;;;;;5039107;28;20203;-56
2023/09/02 06:30:35;;;;;;;11.50;8.53;;;15.20;99.90;;;;;;5039310;28;20695;-56
2023/09/02 06:33:01;;;;;;;10.63;9.63;;;15.30;99.90;;;;;;5032663;28;21010;-56
2023/09/02 06:35:30;;;;;;;9.30;8.40;;;15.50;99.90;;;;;;5037189;28;20225;-56
2023/09/02 06:37:55;;;;;;;8.73;7.63;;;15.50;99.90;;;;;;5040911;28;20199;-56
2023/09/02 06:40:21;;;;;;;11.13;9.97;;;15.60;99.90;;;;;;5039863;28;20252;-56
2023/09/02 06:42:46;;;;;;;10.07;8.17;;;15.60;99.90;;;;;;5033822;28;20199;-55
2023/09/02 06:45:11;;;;;;;11.47;9.00;;;15.50;99.90;;;;;;5032189;28;20215;-56
2023/09/02 06:47:37;;;;;;;9.93;9.03;;;15.50;99.90;;;;;;5038553;28;20457;-55
2023/09/02 06:50:03;;;;;;;10.47;9.47;;;15.50;99.90;;;;;;5038155;28;20210;-55
2023/09/02 06:52:28;;;;;;;10.70;9.50;;;15.70;99.90;;;;;;5036148;28;20191;-56
2023/09/02 06:54:54;;;;;;;9.53;8.60;;;15.80;99.90;;;;;;5033591;28;20674;-56
2023/09/02 06:57:19;;;;;;;11.13;10.00;;;15.90;99.90;;;;;;5038063;28;20234;-56
2023/09/02 06:59:45;;;;;;;10.67;9.47;;;15.90;99.90;;;;;;5035700;28;20748;-55
2023/09/02 07:02:10;;;;;;;9.70;8.70;;;15.90;99.90;;;;;;5031698;28;20215;-56
2023/09/02 07:04:35;;;;;;;10.77;9.67;;;16.00;99.90;;;;;;5019233;28;20212;-56
2023/09/02 07:07:01;;;;;;;11.47;10.27;;;16.00;99.90;;;;;;5034336;28;20213;-55
2023/09/02 07:09:26;;;;;;;12.33;9.40;;;16.10;99.90;;;;;;5039252;28;20199;-56
2023/09/02 07:11:52;;;;;;;11.97;9.73;;;16.40;99.90;;;;;;5038071;28;20731;-55
2023/09/02 07:14:18;;;;;;;10.60;9.10;;;16.60;99.90;;;;;;5042808;28;20198;-55
2023/09/02 07:16:44;;;;;;;9.97;8.80;;;16.60;99.90;;;;;;5035508;28;20223;-55
2023/09/02 07:19:09;;;;;;;11.87;9.00;;;16.60;99.90;;;;;;5024020;28;20195;-55
2023/09/02 07:21:35;;;;;;;12.30;8.77;;;16.70;99.90;;;;;;5041196;28;20201;-55
2023/09/02 07:24:00;;;;;;;10.37;9.57;;;16.70;99.90;;;;;;5035482;28;20324;-56
2023/09/02 07:26:28;;;;;;;9.43;8.20;;;16.70;99.90;;;;;;5037886;28;20210;-56
2023/09/02 07:28:54;;;;;;;10.43;8.93;;;16.70;99.90;;;;;;5038350;28;20202;-56
2023/09/02 07:31:20;;;;;;;9.50;8.50;;;16.70;99.90;;;;;;5017570;28;20191;-58
2023/09/02 07:33:45;;;;;;;9.17;8.20;;;16.70;99.90;;;;;;5036883;28;20290;-57
2023/09/02 07:36:13;;;;;;;9.17;7.87;;;16.80;99.90;;;;;;5037418;28;20226;-64
2023/09/02 07:38:39;;;;;;;10.70;7.30;;;16.90;99.90;;;;;;5019042;28;20202;-55
2023/09/02 07:41:05;;;;;;;7.37;6.67;;;16.90;99.90;;;;;;5035214;28;20213;-55
2023/09/02 07:43:31;;;;;;;9.07;8.13;;;16.90;99.90;;;;;;5029522;28;20204;-54
2023/09/02 07:45:56;;;;;;;8.63;6.87;;;16.90;99.90;;;;;;5039154;28;20279;-57
2023/09/02 07:48:22;;;;;;;7.70;6.90;;;17.00;99.90;;;;;;5017856;28;20221;-57
2023/09/02 07:50:48;;;;;;;10.60;7.93;;;17.20;99.90;;;;;;5038245;28;20561;-56
2023/09/02 07:53:14;;;;;;;10.00;7.93;;;17.20;99.90;;;;;;5040334;28;20687;-56
2023/09/02 07:55:39;;;;;;;8.20;7.13;;;17.30;99.90;;;;;;5030614;28;20226;-58
2023/09/02 07:58:05;;;;;;;6.77;6.13;;;17.30;99.90;;;;;;5038673;28;20267;-57
2023/09/02 08:00:33;;;;;;;5.57;5.07;;;17.30;99.90;;;;;;5030753;28;20206;-57
2023/09/02 08:02:59;;;;;;;7.47;6.60;;;17.40;99.90;;;;;;5032288;28;20204;-54
2023/09/02 08:05:24;;;;;;;10.30;6.47;;;17.40;99.90;;;;;;5031124;28;20277;-64
2023/09/02 08:07:50;;;;;;;7.67;6.27;;;17.40;99.90;;;;;;5036824;28;20210;-59
2023/09/02 08:10:16;;;;;;;11.07;7.13;;;17.50;99.90;;;;;;5035100;28;20217;-60
2023/09/02 08:12:42;;;;;;;9.83;6.93;;;17.60;99.90;;;;;;5035124;28;20245;-59
2023/09/02 08:15:10;;;;;;;7.53;5.47;;;17.70;99.90;;;;;;5036914;28;20742;-62
2023/09/02 08:17:37;;;;;;;5.63;5.07;;;17.70;99.90;;;;;;5040065;28;20207;-61
2023/09/02 08:20:03;;;;;;;5.87;4.87;;;17.80;99.90;;;;;;5037186;28;20254;-60
2023/09/02 08:22:29;;;;;;;4.97;4.57;;;17.80;99.90;;;;;;5032050;28;20298;-58
2023/09/02 08:24:55;;;;;;;4.33;3.47;;;17.90;99.90;;;;;;5034576;28;20279;-57
2023/09/02 08:27:21;;;;;;;5.47;3.53;;;18.00;99.90;;;;;;5034298;28;20257;-61
2023/09/02 08:29:47;;;;;;;5.23;4.67;;;18.10;99.90;;;;;;5041272;28;20694;-59
2023/09/02 08:32:12;;;;;;;3.70;3.40;;;18.20;99.90;;;;;;5037065;28;20191;-61
2023/09/02 08:34:38;;;;;;;2.87;2.67;;;18.30;99.90;;;;;;5035443;28;20222;-57
2023/09/02 08:37:03;;;;;;;3.77;2.90;;;18.40;99.90;;;;;;5031169;28;20300;-56
2023/09/02 08:39:29;;;;;;;4.73;4.10;;;18.50;99.90;;;;;;5034917;28;20194;-53
2023/09/02 08:41:55;;;;;;;3.77;3.40;;;18.60;99.90;;;;;;5032132;28;20521;-54
2023/09/02 08:44:25;;;;;;;4.63;3.40;;;18.80;99.90;;;;;;5033050;28;20202;-54
2023/09/02 08:46:52;;;;;;;4.93;3.73;;;18.80;99.90;;;;;;5033233;28;20246;-57
2023/09/02 08:49:18;;;;;;;8.07;3.97;;;18.80;99.90;;;;;;5036265;28;20251;-58
2023/09/02 08:51:45;;;;;;;7.57;4.00;;;18.70;99.90;;;;;;5035961;28;20313;-56
2023/09/02 08:54:12;;;;;;;5.57;3.93;;;18.80;99.90;;;;;;5041689;28;20599;-56
2023/09/02 08:56:41;;;;;;;4.77;3.77;;;18.90;99.90;;;;;;5036911;28;20621;-56
2023/09/02 08:59:10;;;;;;;7.57;4.50;;;19.00;99.90;;;;;;5031950;28;20287;-56
2023/09/02 09:01:45;;;;;;;4.27;3.90;;;19.00;99.90;;;;;;5035904;28;20699;-56
2023/09/02 09:04:14;;;;;;;4.97;3.70;;;19.10;99.90;;;;;;5039354;28;20200;-53
2023/09/02 09:06:40;;;;;;;5.80;4.13;;;19.10;99.90;;;;;;5040160;28;20199;-53
2023/09/02 09:09:09;;;;;;;7.07;4.83;;;19.10;99.90;;;;;;5040141;28;20201;-53
2023/09/02 09:11:36;;;;;;;6.67;4.33;;;19.10;99.90;;;;;;5037161;28;20286;-58
2023/09/02 09:14:02;;;;;;;6.20;4.70;;;19.20;99.90;;;;;;5040304;28;20216;-59
2023/09/02 09:16:31;;;;;;;4.23;3.83;;;19.30;99.90;;;;;;5033092;28;20694;-55
2023/09/02 09:18:57;;;;;;;6.50;3.77;;;19.30;99.90;;;;;;5034255;28;20212;-53
2023/09/02 09:21:23;;;;;;;3.70;3.30;;;19.40;99.90;;;;;;5031975;28;20837;-55
2023/09/02 09:23:49;;;;;;;4.90;3.70;;;19.50;99.90;;;;;;5018794;28;20275;-56
2023/09/02 09:26:15;;;;;;;4.43;4.10;;;19.60;99.90;;;;;;5038710;28;20299;-56
2023/09/02 09:28:54;;;;;;;5.83;3.77;;;19.80;99.90;;;;;;5035284;28;20204;-57
2023/09/02 09:31:21;;;;;;;5.10;3.33;;;19.90;99.90;;;;;;5039042;28;20202;-60
2023/09/02 09:33:54;;;;;;;4.63;3.30;;;19.90;99.90;;;;;;5041593;28;20235;-53
2023/09/02 09:36:23;;;;;;;5.30;3.30;;;19.90;99.90;;;;;;5036711;28;20913;-53
2023/09/02 09:38:52;;;;;;;4.70;3.13;;;19.90;99.90;;;;;;5036683;28;20276;-60
2023/09/02 09:41:17;;;;;;;6.03;2.87;;;20.00;99.90;;;;;;5016878;28;20199;-57
2023/09/02 09:43:43;;;;;;;5.07;2.60;;;20.00;99.90;;;;;;5030281;28;20212;-56
2023/09/02 09:46:13;;;;;;;5.57;3.00;;;19.90;99.90;;;;;;5040122;28;20211;-56
2023/09/02 09:48:46;;;;;;;6.07;2.93;;;19.90;99.90;;;;;;5035330;28;20234;-56
2023/09/02 09:51:24;;;;;;;4.10;3.20;;;20.00;99.90;;;;;;5038953;28;20294;-56
2023/09/02 09:53:50;;;;;;;8.30;2.80;;;20.10;99.90;;;;;;5033557;28;20214;-62
2023/09/02 09:56:16;;;;;;;4.43;2.70;;;20.00;99.90;;;;;;5027114;28;20230;-60
2023/09/02 09:58:41;;;;;;;4.00;3.17;;;20.00;99.90;;;;;;5037705;28;20206;-56
2023/09/02 10:01:08;;;;;;;4.07;3.07;;;20.20;99.90;;;;;;5017679;28;20212;-56
2023/09/02 10:03:34;;;;;;;5.23;3.40;;;20.30;99.90;;;;;;5039181;28;20298;-56
2023/09/02 10:06:01;;;;;;;3.67;2.67;;;20.30;99.90;;;;;;5040986;28;20674;-56
2023/09/02 10:08:27;;;;;;;2.57;2.37;;;20.30;99.90;;;;;;5039787;28;20247;-56
2023/09/02 10:10:52;;;;;;;4.43;3.03;;;20.30;99.90;;;;;;5042710;28;20901;-56
2023/09/02 10:13:18;;;;;;;3.13;2.83;;;20.30;99.90;;;;;;5035629;28;20239;-56
2023/09/02 10:15:46;;;;;;;6.23;3.07;;;20.10;99.90;;;;;;5005062;28;20211;-56
2023/09/02 10:18:12;;;;;;;4.63;2.80;;;20.10;99.90;;;;;;5037166;28;20209;-56
2023/09/02 10:20:38;;;;;;;4.53;2.47;;;20.10;99.90;;;;;;5041459;28;20212;-56
2023/09/02 10:23:06;;;;;;;2.70;2.50;;;20.20;99.90;;;;;;5035364;28;20292;-57
2023/09/02 10:25:54;;;;;;;2.30;1.80;;;20.20;99.90;;;;;;5044554;28;20208;-56
2023/09/02 10:28:36;;;;;;;4.73;2.80;;;20.30;99.90;;;;;;5041755;28;20616;-57
2023/09/02 10:31:06;;;;;;;6.73;2.50;;;20.50;99.90;;;;;;5044472;28;20198;-56
2023/09/02 10:33:43;;;;;;;2.73;2.47;;;20.60;99.90;;;;;;5039148;28;20763;-56
2023/09/02 10:36:09;;;;;;;5.00;2.53;;;20.60;99.90;;;;;;5039397;28;20706;-56
2023/09/02 10:38:40;;;;;;;4.30;2.60;;;20.60;99.90;;;;;;5040518;28;20286;-56
2023/09/02 10:41:09;;;;;;;3.97;3.00;;;20.60;99.90;;;;;;5040589;28;20262;-56
2023/09/02 10:43:36;;;;;;;6.63;2.40;;;20.60;99.90;;;;;;5032485;28;20190;-56
2023/09/02 10:46:02;;;;;;;2.43;2.23;;;20.60;99.90;;;;;;5045158;28;20608;-56
2023/09/02 10:48:28;;;;;;;4.47;2.50;;;20.70;99.90;;;;;;5021596;28;20225;-57
2023/09/02 10:50:55;;;;;;;2.67;2.43;;;20.80;99.90;;;;;;5035870;28;20305;-57
2023/09/02 10:54:01;;;;;;;3.10;2.30;;;20.90;99.90;;;;;;5035463;28;20245;-56
2023/09/02 10:56:30;;;;;;;5.53;2.73;;;21.00;99.90;;;;;;5030135;28;20224;-56
2023/09/02 10:59:07;;;;;;;4.97;2.80;;;21.00;99.90;;;;;;5035531;28;20202;-59
2023/09/02 11:01:48;;;;;;;5.57;2.33;;;21.30;99.90;;;;;;5042119;28;20210;-54
2023/09/02 11:04:35;;;;;;;4.90;1.90;;;21.60;99.90;;;;;;5020014;28;20190;-57
2023/09/02 11:07:22;;;;;;;3.05;2.00;;;22.00;99.90;;;;;;5035998;28;20215;-53
2023/09/02 11:09:58;;;;;;;5.47;2.30;;;22.50;99.90;;;;;;5036647;28;20210;-54
2023/09/02 11:12:24;;;;;;;3.70;2.47;;;22.90;99.90;;;;;;5038130;28;20198;-53
2023/09/02 11:15:08;;;;;;;4.10;2.40;;;22.40;99.90;;;;;;5038609;28;20202;-54
2023/09/02 11:17:38;;;;;;;2.65;2.42;;;22.40;99.90;;;;;;5038319;28;20306;-53
2023/09/02 11:20:08;;;;;;;3.30;2.50;;;22.50;99.90;;;;;;5037669;28;20205;-53
2023/09/02 11:22:54;;;;;;;2.43;2.23;;;22.60;99.90;;;;;;5037393;28;20206;-56
2023/09/02 11:25:39;;;;;;;3.60;2.33;;;22.40;99.90;;;;;;5034952;28;20210;-53
2023/09/02 11:28:06;;;;;;;4.60;2.43;;;22.30;99.90;;;;;;5036599;28;20303;-54
2023/09/02 11:30:37;;;;;;;2.50;2.20;;;22.40;99.90;;;;;;5031845;28;20192;-55
2023/09/02 11:33:04;;;;;;;2.07;1.70;;;22.40;99.90;;;;;;5033000;28;20207;-58
2023/09/02 11:35:37;;;;;;;3.08;2.13;;;22.60;99.90;;;;;;5036417;28;20210;-52
2023/09/02 11:38:15;;;;;;;4.03;2.13;;;22.90;99.90;;;;;;5037031;28;20209;-55
2023/09/02 11:40:41;;;;;;;2.42;2.15;;;23.10;99.90;;;;;;5037239;28;20604;-54
2023/09/02 11:43:06;;;;;;;4.78;2.42;;;23.80;97.40;;;;;;5019116;28;20251;-53
2023/09/02 11:45:38;;;;;;;2.67;2.03;;;24.20;97.00;;;;;;5034209;28;20743;-53
2023/09/02 11:48:04;;;;;;;4.25;1.75;;;23.60;96.90;;;;;;5029522;28;20222;-54
2023/09/02 11:50:29;;;;;;;3.15;1.83;;;23.30;97.50;;;;;;5029994;28;20218;-54
2023/09/02 11:52:57;;;;;;;2.28;2.08;;;22.60;97.90;;;;;;5036284;28;20206;-54
2023/09/02 11:55:24;;;;;;;1.77;1.38;;;22.30;98.30;;;;;;5035349;28;20248;-57
2023/09/02 11:57:50;;;;;;;2.70;2.03;;;22.10;98.60;;;;;;5035367;28;20218;-55
2023/09/02 12:00:18;;;;;;;2.80;2.20;;;21.80;98.40;;;;;;5036557;28;20198;-56
2023/09/02 12:02:44;;;;;;;3.10;2.10;;;21.60;99.20;;;;;;5038996;28;20285;-55
2023/09/02 12:05:10;;;;;;;2.23;2.03;;;21.40;99.50;;;;;;5037543;28;20489;-55
2023/09/02 12:07:37;;;;;;;3.03;2.13;;;21.30;99.90;;;;;;5037281;28;20694;-57
2023/09/02 12:10:14;;;;;;;6.77;2.23;;;21.30;99.90;;;;;;5039247;28;20423;-54
2023/09/02 12:12:41;;;;;;;3.57;1.90;;;21.20;99.90;;;;;;5020021;28;20271;-54
2023/09/02 12:15:10;;;;;;;1.97;1.87;;;21.10;99.90;;;;;;5035808;28;20293;-54
2023/09/02 12:17:36;;;;;;;3.03;2.20;;;21.00;99.90;;;;;;5032761;28;20296;-53
2023/09/02 12:20:02;;;;;;;5.17;2.50;;;21.00;99.90;;;;;;5028862;28;20288;-54
2023/09/02 12:22:28;;;;;;;4.50;2.50;;;20.90;99.90;;;;;;5037478;28;20792;-54
2023/09/02 12:24:53;;;;;;;2.33;2.13;;;20.80;99.90;;;;;;5034214;28;20218;-56
2023/09/02 12:27:19;;;;;;;2.13;2.00;;;20.70;99.90;;;;;;5018234;28;20271;-57
2023/09/02 12:29:56;;;;;;;2.57;2.03;;;20.70;99.90;;;;;;5040488;28;20205;-54
2023/09/02 12:32:22;;;;;;;3.20;2.10;;;20.60;99.90;;;;;;5038989;28;20209;-54
2023/09/02 12:34:47;;;;;;;4.07;2.70;;;20.60;99.90;;;;;;5039401;28;20645;-53
2023/09/02 12:37:13;;;;;;;2.23;2.03;;;20.60;99.90;;;;;;5036072;28;20288;-54
2023/09/02 12:39:38;;;;;;;2.60;2.40;;;20.60;99.90;;;;;;5035570;28;20715;-53
2023/09/02 12:42:14;;;;;;;5.13;2.53;;;20.60;99.90;;;;;;5034892;28;20603;-54